Genco Aquitaine — V7DT9 — position and weather

sailwx.info

Track history (hours):
 
Tides and Currents Weather Stations Pressure Air Temp Water Temp Dewpoint Dewpoint Depression Visibility Wind Speed Wind Dir Waves Ship Positions

Genco Aquitaine

Last reported at 2017-Nov-17 17:06 UTC. Time now 2017-Nov-18 03:02 UTC.
Position N 35°48' E 030°20'.

Length 189 m; draft 6.1 m.

Type: Ship. MMSI: 367033036.

Date/timePositionNaut miles runAvg speedWind from/ knotsBaromVisibWave heightAir tempDewpointWater temp
2017-Nov-17 17:06N 35°48' E 030°20'113.8
2017-Nov-17 17:00N 35°48' E 030°22'913.0
2017-Nov-17 16:17N 35°48' E 030°33'413.0
2017-Nov-17 16:00N 35°48' E 030°38'613.1
2017-Nov-17 15:30N 35°48' E 030°46'713.1
2017-Nov-17 15:00N 35°49' E 030°54'713.2
2017-Nov-17 14:30N 35°49' E 031°02'713.5
2017-Nov-17 14:00N 35°49' E 031°11'713.1
2017-Nov-17 13:30N 35°49' E 031°19'713.2
2017-Nov-17 13:00N 35°49' E 031°27'713.0
2017-Nov-17 12:28N 35°49' E 031°35'  
Track history (hours):
 
Tides and Currents Weather Stations Pressure Air Temp Water Temp Dewpoint Dewpoint Depression Visibility Wind Speed Wind Dir Waves Ship Positions

Genco Aquitaine

Last reported at 2017-Nov-17 17:06 UTC. Time now 2017-Nov-18 03:02 UTC.
Position N 35°48' E 030°20'.

Length 189 m; draft 6.1 m.

Type: Ship. MMSI: 367033036.

Date/timePositionNaut miles runAvg speedWind from/ knotsBaromVisibWave heightAir tempDewpointWater temp
2017-Nov-17 17:06N 35°48' E 030°20'113.8
2017-Nov-17 17:00N 35°48' E 030°22'913.0
2017-Nov-17 16:17N 35°48' E 030°33'413.0
2017-Nov-17 16:00N 35°48' E 030°38'613.1
2017-Nov-17 15:30N 35°48' E 030°46'713.1
2017-Nov-17 15:00N 35°49' E 030°54'713.2
2017-Nov-17 14:30N 35°49' E 031°02'713.5
2017-Nov-17 14:00N 35°49' E 031°11'713.1
2017-Nov-17 13:30N 35°49' E 031°19'713.2
2017-Nov-17 13:00N 35°49' E 031°27'713.0
2017-Nov-17 12:28N 35°49' E 031°35'  

Dump ship's entire track history